Time;durP1;ratioP1;P1;durP2;ratioP2;P2;SDS_P1;SDS_P2;PMS_P1;PMS_P2;Temp;Humidity;BMP_temperature;BMP_pressure;BME280_temperature;BME280_humidity;BME280_pressure;Samples;Min_cycle;Max_cycle;Signal;HPM_P1;HPM_P2
2023/12/20 00:01:07;;;;;;;0.77;0.77;;;-1.20;99.90;;;;;;5071383;28;20204;-74
2023/12/20 00:03:33;;;;;;;0.70;0.70;;;-1.20;99.90;;;;;;5071356;28;20198;-74
2023/12/20 00:05:58;;;;;;;0.80;0.80;;;-1.30;99.90;;;;;;5071513;28;20200;-74
2023/12/20 00:08:24;;;;;;;0.70;0.70;;;-1.40;99.90;;;;;;5071149;28;20574;-73
2023/12/20 00:10:50;;;;;;;0.80;0.80;;;-1.40;99.90;;;;;;5069845;28;20672;-73
2023/12/20 00:13:15;;;;;;;0.80;0.80;;;-1.50;99.90;;;;;;5048308;28;20197;-73
2023/12/20 00:15:41;;;;;;;0.80;0.80;;;-1.60;99.90;;;;;;5032726;28;20817;-73
2023/12/20 00:18:07;;;;;;;1.00;1.00;;;-1.60;99.90;;;;;;5051210;28;20193;-73
2023/12/20 00:20:32;;;;;;;0.90;0.90;;;-1.70;99.90;;;;;;5056571;28;20204;-73
2023/12/20 00:22:58;;;;;;;0.80;0.80;;;-1.70;99.90;;;;;;5072866;28;20196;-74
2023/12/20 00:25:24;;;;;;;0.88;0.88;;;-1.70;99.90;;;;;;5090981;28;20249;-73
2023/12/20 00:27:50;;;;;;;0.90;0.90;;;-1.80;99.90;;;;;;5091048;28;20298;-73
2023/12/20 00:30:16;;;;;;;0.77;0.77;;;-1.80;99.90;;;;;;5090908;28;20296;-74
2023/12/20 00:32:46;;;;;;;0.75;0.75;;;-1.70;99.90;;;;;;5088304;28;20545;-72
2023/12/20 00:35:16;;;;;;;0.80;0.80;;;-1.70;99.90;;;;;;5070634;28;20247;-72
2023/12/20 00:37:44;;;;;;;0.93;0.93;;;-1.60;99.90;;;;;;5070386;28;20299;-73
2023/12/20 00:40:11;;;;;;;0.70;0.70;;;-1.60;99.90;;;;;;5071340;28;20197;-73
2023/12/20 00:42:37;;;;;;;0.70;0.70;;;-1.60;99.90;;;;;;5070475;28;20207;-73
2023/12/20 00:45:04;;;;;;;0.90;0.90;;;-1.60;99.90;;;;;;5070573;28;20200;-73
2023/12/20 00:47:30;;;;;;;0.70;0.70;;;-1.60;99.90;;;;;;5051933;28;20205;-73
2023/12/20 00:49:56;;;;;;;0.70;0.70;;;-1.60;99.90;;;;;;5070266;28;20196;-74
2023/12/20 00:52:22;;;;;;;0.80;0.80;;;-1.60;99.90;;;;;;5069978;28;20601;-72
2023/12/20 00:54:48;;;;;;;0.80;0.80;;;-1.60;99.90;;;;;;5070422;28;20193;-73
2023/12/20 00:57:14;;;;;;;1.30;1.20;;;-1.60;99.90;;;;;;5087151;28;20231;-73
2023/12/20 00:59:40;;;;;;;0.80;0.80;;;-1.50;99.90;;;;;;5090349;28;20214;-72
2023/12/20 01:02:06;;;;;;;1.30;1.20;;;-1.40;99.90;;;;;;5090135;28;20715;-72
2023/12/20 01:04:32;;;;;;;0.80;0.80;;;-1.40;99.90;;;;;;5090313;28;20652;-73
2023/12/20 01:06:57;;;;;;;0.70;0.70;;;-1.40;99.90;;;;;;5090158;28;20200;-73
2023/12/20 01:09:26;;;;;;;0.80;0.80;;;-1.40;99.90;;;;;;5089660;28;20687;-72
2023/12/20 01:11:55;;;;;;;0.65;0.65;;;-1.40;99.90;;;;;;5071687;28;20229;-73
2023/12/20 01:14:20;;;;;;;0.70;0.70;;;-1.40;99.90;;;;;;5090503;28;20657;-73
2023/12/20 01:16:46;;;;;;;0.70;0.70;;;-1.40;99.90;;;;;;5074400;28;20207;-73
2023/12/20 01:19:13;;;;;;;0.75;0.75;;;-1.40;99.90;;;;;;5092007;28;20340;-73
2023/12/20 01:21:39;;;;;;;0.65;0.65;;;-1.40;99.90;;;;;;5109829;28;20195;-73
2023/12/20 01:24:05;;;;;;;0.70;0.70;;;-1.40;99.90;;;;;;5110402;28;20734;-72
2023/12/20 01:26:31;;;;;;;0.70;0.70;;;-1.40;99.90;;;;;;5109999;28;20191;-73
2023/12/20 01:28:56;;;;;;;0.82;0.82;;;-1.50;99.90;;;;;;5104866;28;20188;-72
2023/12/20 01:31:22;;;;;;;0.70;0.70;;;-1.40;99.90;;;;;;5069767;28;20247;-73
2023/12/20 01:33:47;;;;;;;0.80;0.80;;;-1.40;99.90;;;;;;5069515;28;20279;-74
2023/12/20 01:36:13;;;;;;;0.70;0.70;;;-1.30;99.90;;;;;;5069335;28;20193;-73
2023/12/20 01:38:39;;;;;;;0.70;0.70;;;-1.30;99.90;;;;;;5069284;28;20607;-73
2023/12/20 01:41:04;;;;;;;0.70;0.70;;;-1.30;99.90;;;;;;5069330;28;20192;-73
2023/12/20 01:43:30;;;;;;;0.80;0.80;;;-1.30;99.90;;;;;;5075141;28;20694;-73
2023/12/20 01:45:57;;;;;;;0.80;0.80;;;-1.20;99.90;;;;;;5089651;28;20603;-72
2023/12/20 01:48:24;;;;;;;0.70;0.70;;;-1.10;99.90;;;;;;5089326;28;20235;-73
2023/12/20 01:50:51;;;;;;;0.70;0.70;;;-1.10;99.90;;;;;;5089604;28;20249;-73
2023/12/20 01:53:18;;;;;;;0.95;0.95;;;-1.00;99.90;;;;;;5089295;28;20198;-73
2023/12/20 01:55:44;;;;;;;0.70;0.70;;;-0.90;99.90;;;;;;5070278;28;20242;-73
2023/12/20 01:58:12;;;;;;;0.70;0.70;;;-0.70;99.90;;;;;;5088653;28;20204;-73
2023/12/20 02:00:38;;;;;;;0.77;0.77;;;-0.60;99.90;;;;;;5088431;28;20200;-72
2023/12/20 02:03:04;;;;;;;0.80;0.80;;;-0.60;99.90;;;;;;5088472;28;20188;-73
2023/12/20 02:05:31;;;;;;;0.77;0.77;;;-0.50;99.90;;;;;;5088698;28;20214;-73
2023/12/20 02:07:56;;;;;;;0.70;0.70;;;-0.40;99.90;;;;;;5109345;28;20208;-70
2023/12/20 02:10:23;;;;;;;0.73;0.73;;;-0.30;99.90;;;;;;5109330;28;20668;-69
2023/12/20 02:12:49;;;;;;;0.80;0.80;;;-0.10;99.90;;;;;;5109172;28;20442;-69
2023/12/20 02:15:14;;;;;;;0.70;0.70;;;-0.10;99.90;;;;;;5109244;28;20202;-70
2023/12/20 02:17:40;;;;;;;0.75;0.75;;;-0.10;99.90;;;;;;5109131;28;20206;-70
2023/12/20 02:20:07;;;;;;;6.05;1.20;;;0.00;99.90;;;;;;5109481;28;20226;-70
2023/12/20 02:22:32;;;;;;;0.63;0.63;;;0.00;99.90;;;;;;5109317;28;20199;-71
2023/12/20 02:24:58;;;;;;;0.70;0.70;;;0.10;99.90;;;;;;5108988;28;20207;-70
2023/12/20 02:27:24;;;;;;;0.73;0.73;;;0.20;99.90;;;;;;5109121;28;20206;-69
2023/12/20 02:29:50;;;;;;;0.70;0.70;;;0.30;99.90;;;;;;5108672;28;20555;-70
2023/12/20 02:32:20;;;;;;;0.70;0.70;;;0.30;99.90;;;;;;5109195;28;20718;-69
2023/12/20 02:34:47;;;;;;;0.77;0.77;;;0.30;99.90;;;;;;5108647;28;20191;-69
2023/12/20 02:37:13;;;;;;;0.80;0.80;;;0.40;99.90;;;;;;5108927;28;20654;-69
2023/12/20 02:39:39;;;;;;;0.70;0.70;;;0.40;99.90;;;;;;5108998;28;20191;-70
2023/12/20 02:42:05;;;;;;;0.70;0.70;;;0.40;99.90;;;;;;5090610;28;20203;-70
2023/12/20 02:44:30;;;;;;;0.63;0.63;;;0.40;99.90;;;;;;5096999;28;20208;-70
2023/12/20 02:46:56;;;;;;;0.60;0.60;;;0.40;99.90;;;;;;5109116;28;20199;-70
2023/12/20 02:49:21;;;;;;;0.70;0.70;;;0.40;99.90;;;;;;5108686;28;20196;-69
2023/12/20 02:51:47;;;;;;;0.80;0.80;;;0.40;99.90;;;;;;5108855;28;20191;-69
2023/12/20 02:54:13;;;;;;;0.60;0.60;;;0.50;99.90;;;;;;5109161;28;20187;-71
2023/12/20 02:56:38;;;;;;;0.60;0.60;;;0.50;99.90;;;;;;5108841;28;20238;-70
2023/12/20 02:59:05;;;;;;;0.70;0.70;;;0.50;99.90;;;;;;5108776;28;20217;-70
2023/12/20 03:01:31;;;;;;;0.88;0.88;;;0.50;99.90;;;;;;5107846;28;20202;-70
2023/12/20 03:03:57;;;;;;;0.60;0.60;;;0.50;99.90;;;;;;5089088;28;20185;-68
2023/12/20 03:06:23;;;;;;;0.70;0.70;;;0.60;99.90;;;;;;5087243;28;20199;-69
2023/12/20 03:08:49;;;;;;;1.35;1.25;;;0.60;99.90;;;;;;5088312;28;20213;-70
2023/12/20 03:11:14;;;;;;;2.05;0.95;;;0.60;99.90;;;;;;5107871;28;20211;-70
2023/12/20 03:13:40;;;;;;;0.75;0.75;;;0.60;99.90;;;;;;5090343;28;20567;-71
2023/12/20 03:16:13;;;;;;;1.45;1.35;;;0.60;99.90;;;;;;5108778;28;20199;-69
2023/12/20 03:18:39;;;;;;;0.70;0.70;;;0.60;99.90;;;;;;5108736;28;20711;-68
2023/12/20 03:21:05;;;;;;;0.80;0.80;;;0.60;99.90;;;;;;5108701;28;20266;-69
2023/12/20 03:23:32;;;;;;;0.70;0.70;;;0.60;99.90;;;;;;5108545;28;20592;-70
2023/12/20 03:25:58;;;;;;;0.70;0.70;;;0.60;99.90;;;;;;5109039;28;20191;-70
2023/12/20 03:28:24;;;;;;;0.60;0.60;;;0.60;99.90;;;;;;5108568;28;20750;-69
2023/12/20 03:30:50;;;;;;;1.38;1.00;;;0.60;99.90;;;;;;5108564;28;20643;-69
2023/12/20 03:33:16;;;;;;;0.60;0.60;;;0.60;99.90;;;;;;5108875;28;20239;-69
2023/12/20 03:35:41;;;;;;;0.70;0.70;;;0.60;99.90;;;;;;5108230;28;20218;-70
2023/12/20 03:38:07;;;;;;;0.77;0.77;;;0.70;99.90;;;;;;5108571;28;20195;-68
2023/12/20 03:40:33;;;;;;;1.52;1.10;;;0.70;99.90;;;;;;5108575;28;20203;-69
2023/12/20 03:42:59;;;;;;;0.63;0.63;;;0.80;99.90;;;;;;5090400;28;20675;-68
2023/12/20 03:45:25;;;;;;;0.70;0.70;;;0.80;99.90;;;;;;5109355;28;20278;-68
2023/12/20 03:47:55;;;;;;;0.70;0.70;;;0.80;99.90;;;;;;5093992;28;20253;-68
2023/12/20 03:50:22;;;;;;;0.70;0.70;;;0.90;99.90;;;;;;5093466;28;20199;-69
2023/12/20 03:52:47;;;;;;;0.80;0.80;;;0.90;99.90;;;;;;5112037;28;20219;-70
2023/12/20 03:55:13;;;;;;;0.70;0.70;;;0.90;99.90;;;;;;5111942;28;20230;-69
2023/12/20 03:57:39;;;;;;;0.75;0.75;;;1.00;99.90;;;;;;5111989;28;20207;-68
2023/12/20 04:00:10;;;;;;;0.60;0.60;;;1.00;99.90;;;;;;5091520;28;20656;-69
2023/12/20 04:02:36;;;;;;;0.73;0.73;;;1.00;99.90;;;;;;5102915;28;20199;-68
2023/12/20 04:05:02;;;;;;;4.55;0.98;;;1.00;99.90;;;;;;5092896;28;20576;-69
2023/12/20 04:07:27;;;;;;;0.90;0.90;;;1.10;99.90;;;;;;5111827;28;20207;-69
2023/12/20 04:09:53;;;;;;;0.70;0.70;;;1.10;99.90;;;;;;5103423;28;20663;-69
2023/12/20 04:12:19;;;;;;;0.80;0.80;;;1.10;99.90;;;;;;5106878;28;20222;-68
2023/12/20 04:14:44;;;;;;;0.70;0.70;;;1.10;99.90;;;;;;5091287;28;20636;-69
2023/12/20 04:17:10;;;;;;;0.70;0.70;;;1.20;99.90;;;;;;5091150;28;20199;-69
2023/12/20 04:19:36;;;;;;;0.50;0.50;;;1.20;99.90;;;;;;5090952;28;20211;-69
2023/12/20 04:22:01;;;;;;;0.60;0.60;;;1.20;99.90;;;;;;5091176;28;20192;-69
2023/12/20 04:24:27;;;;;;;0.70;0.70;;;1.20;99.90;;;;;;5091001;28;20271;-68
2023/12/20 04:26:53;;;;;;;0.65;0.65;;;1.20;99.90;;;;;;5072838;28;20216;-68
2023/12/20 04:29:18;;;;;;;0.70;0.70;;;1.30;99.90;;;;;;5090970;28;20204;-71
2023/12/20 04:31:44;;;;;;;0.70;0.70;;;1.30;99.90;;;;;;5092421;28;20199;-72
2023/12/20 04:34:10;;;;;;;0.65;0.65;;;1.30;99.90;;;;;;5111347;28;20668;-72
2023/12/20 04:36:35;;;;;;;0.80;0.80;;;1.30;99.90;;;;;;5111058;28;20265;-72
2023/12/20 04:39:01;;;;;;;0.60;0.60;;;1.30;99.90;;;;;;5111483;28;20195;-71
2023/12/20 04:41:27;;;;;;;0.60;0.60;;;1.40;99.90;;;;;;5110944;28;20245;-72
2023/12/20 04:43:53;;;;;;;0.70;0.70;;;1.30;99.90;;;;;;5111159;28;20621;-73
2023/12/20 04:46:18;;;;;;;0.73;0.73;;;1.40;99.90;;;;;;5110957;28;20219;-72
2023/12/20 04:48:44;;;;;;;1.20;1.10;;;1.40;99.90;;;;;;5111038;28;20208;-72
2023/12/20 04:51:10;;;;;;;0.60;0.60;;;1.40;99.90;;;;;;5110926;28;20191;-71
2023/12/20 04:53:35;;;;;;;0.60;0.60;;;1.40;99.90;;;;;;5092631;28;20662;-71
2023/12/20 04:56:01;;;;;;;0.75;0.75;;;1.50;99.90;;;;;;5093576;28;20319;-71
2023/12/20 04:58:27;;;;;;;0.90;0.90;;;1.50;99.90;;;;;;5071271;28;20654;-71
2023/12/20 05:00:53;;;;;;;0.80;0.80;;;1.50;99.90;;;;;;5072155;28;20638;-71
2023/12/20 05:03:18;;;;;;;0.80;0.80;;;1.60;99.90;;;;;;5105957;28;20207;-71
2023/12/20 05:05:44;;;;;;;0.70;0.70;;;1.60;99.90;;;;;;5110736;28;20188;-71
2023/12/20 05:08:10;;;;;;;0.70;0.70;;;1.60;99.90;;;;;;5110482;28;20658;-71
2023/12/20 05:10:36;;;;;;;0.50;0.50;;;1.60;99.90;;;;;;5091646;28;20202;-71
2023/12/20 05:13:02;;;;;;;0.63;0.63;;;1.60;99.90;;;;;;5092005;28;20199;-71
2023/12/20 05:15:28;;;;;;;2.03;1.65;;;1.60;99.90;;;;;;5076311;28;20248;-70
2023/12/20 05:17:53;;;;;;;0.90;0.90;;;1.60;99.90;;;;;;5090011;28;20199;-69
2023/12/20 05:20:19;;;;;;;0.60;0.60;;;1.70;99.90;;;;;;5089830;28;20196;-70
2023/12/20 05:22:45;;;;;;;1.38;1.00;;;1.70;99.90;;;;;;5089919;28;20196;-68
2023/12/20 05:25:10;;;;;;;0.80;0.80;;;1.70;99.90;;;;;;5071490;28;20192;-69
2023/12/20 05:27:36;;;;;;;0.60;0.60;;;1.80;99.90;;;;;;5071475;28;20291;-69
2023/12/20 05:30:04;;;;;;;0.95;0.95;;;1.80;99.90;;;;;;5108896;28;20656;-68
2023/12/20 05:32:30;;;;;;;0.73;0.73;;;1.70;99.90;;;;;;5110154;28;20183;-69
2023/12/20 05:34:55;;;;;;;0.60;0.60;;;1.80;99.90;;;;;;5110202;28;20271;-69
2023/12/20 05:37:21;;;;;;;0.70;0.70;;;1.80;99.90;;;;;;5091549;28;20203;-69
2023/12/20 05:39:47;;;;;;;0.60;0.60;;;1.80;99.90;;;;;;5091901;28;20208;-73
2023/12/20 05:42:12;;;;;;;0.80;0.80;;;1.80;99.90;;;;;;5110167;28;20270;-73
2023/12/20 05:44:38;;;;;;;0.73;0.73;;;1.80;99.90;;;;;;5109914;28;20279;-72
2023/12/20 05:47:04;;;;;;;0.70;0.70;;;1.90;99.90;;;;;;5109972;28;20199;-73
2023/12/20 05:49:29;;;;;;;0.60;0.60;;;1.90;99.90;;;;;;5109805;28;20188;-73
2023/12/20 05:51:55;;;;;;;3.35;2.17;;;1.90;99.90;;;;;;5095377;28;20275;-73
2023/12/20 05:54:21;;;;;;;2.83;1.60;;;1.90;99.90;;;;;;5089305;28;20220;-73
2023/12/20 05:56:47;;;;;;;0.50;0.50;;;1.90;99.90;;;;;;5070942;28;20232;-74
2023/12/20 05:59:13;;;;;;;1.60;1.50;;;1.90;99.90;;;;;;5102308;28;20229;-73
2023/12/20 06:01:39;;;;;;;0.70;0.70;;;1.90;99.90;;;;;;5109414;28;20598;-73
2023/12/20 06:04:05;;;;;;;0.70;0.70;;;1.90;99.90;;;;;;5125906;27;20198;-73
2023/12/20 06:06:30;;;;;;;0.60;0.60;;;1.90;99.90;;;;;;5109409;28;20188;-73
2023/12/20 06:08:56;;;;;;;0.70;0.70;;;2.00;99.90;;;;;;5109479;28;20207;-73
2023/12/20 06:11:22;;;;;;;0.60;0.60;;;2.00;99.90;;;;;;5095871;28;20206;-72
2023/12/20 06:13:48;;;;;;;1.63;1.45;;;2.00;99.90;;;;;;5089274;28;20295;-73
2023/12/20 06:16:15;;;;;;;0.80;0.80;;;2.00;99.90;;;;;;5089491;28;20604;-74
2023/12/20 06:18:40;;;;;;;3.72;1.85;;;2.00;99.90;;;;;;5089135;28;20202;-72
2023/12/20 06:21:07;;;;;;;3.17;2.72;;;2.00;99.90;;;;;;5089019;28;20192;-72
2023/12/20 06:23:33;;;;;;;0.90;0.90;;;2.00;99.90;;;;;;5089110;28;20618;-75
2023/12/20 06:25:59;;;;;;;0.90;0.90;;;2.10;99.90;;;;;;5105199;28;20241;-74
2023/12/20 06:28:24;;;;;;;0.70;0.70;;;2.10;99.90;;;;;;5109308;28;20199;-69
2023/12/20 06:30:52;;;;;;;2.67;1.88;;;2.10;99.90;;;;;;5108670;28;20206;-69
2023/12/20 06:33:18;;;;;;;0.60;0.60;;;2.10;99.90;;;;;;5108973;28;20210;-70
2023/12/20 06:35:44;;;;;;;0.80;0.80;;;2.20;99.90;;;;;;5108924;28;20203;-69
2023/12/20 06:38:10;;;;;;;0.60;0.60;;;2.20;99.90;;;;;;5108949;28;20223;-68
2023/12/20 06:40:36;;;;;;;0.70;0.70;;;2.20;99.90;;;;;;5109060;28;20195;-69
2023/12/20 06:43:02;;;;;;;0.93;0.93;;;2.20;99.90;;;;;;5090854;28;20532;-70
2023/12/20 06:45:27;;;;;;;0.80;0.80;;;2.30;99.90;;;;;;5109259;28;20691;-69
2023/12/20 06:47:54;;;;;;;0.70;0.70;;;2.30;99.90;;;;;;5090808;28;20643;-69
2023/12/20 06:50:20;;;;;;;0.80;0.80;;;2.30;99.90;;;;;;5109059;28;20270;-70
2023/12/20 06:52:46;;;;;;;0.82;0.82;;;2.30;99.90;;;;;;5090830;28;20283;-69
2023/12/20 06:55:11;;;;;;;0.68;0.68;;;2.30;99.90;;;;;;5109132;28;20203;-69
2023/12/20 06:57:37;;;;;;;0.70;0.70;;;2.30;99.90;;;;;;5109077;28;20231;-69
2023/12/20 07:00:04;;;;;;;1.20;1.10;;;2.30;99.90;;;;;;5109093;28;20199;-69
2023/12/20 07:02:30;;;;;;;1.70;1.45;;;2.30;99.90;;;;;;5090564;28;20338;-71
2023/12/20 07:04:56;;;;;;;0.60;0.60;;;2.30;99.90;;;;;;5108939;28;20191;-70
2023/12/20 07:07:23;;;;;;;0.60;0.60;;;2.30;99.90;;;;;;5098376;28;20698;-70
2023/12/20 07:09:48;;;;;;;1.45;1.35;;;2.30;99.90;;;;;;5095946;28;20582;-69
2023/12/20 07:12:14;;;;;;;0.68;0.68;;;2.30;99.90;;;;;;5109301;28;20279;-69
2023/12/20 07:14:40;;;;;;;0.60;0.60;;;2.30;99.90;;;;;;5108905;28;20328;-70
2023/12/20 07:17:11;;;;;;;1.77;1.40;;;2.30;99.90;;;;;;5109015;28;20557;-70
2023/12/20 07:19:37;;;;;;;0.70;0.70;;;2.30;99.90;;;;;;5108760;28;20680;-70
2023/12/20 07:22:04;;;;;;;0.60;0.60;;;2.30;99.90;;;;;;5112462;27;20674;-70
2023/12/20 07:24:29;;;;;;;2.58;1.63;;;2.30;99.90;;;;;;5112585;28;20575;-69
2023/12/20 07:26:55;;;;;;;0.60;0.60;;;2.30;99.90;;;;;;5112218;28;20219;-70
2023/12/20 07:29:20;;;;;;;0.70;0.70;;;2.30;99.90;;;;;;5112405;28;20271;-70
2023/12/20 07:31:46;;;;;;;0.60;0.60;;;2.30;99.90;;;;;;5112398;28;20197;-69
2023/12/20 07:34:12;;;;;;;0.63;0.63;;;2.40;99.90;;;;;;5094147;28;20290;-69
2023/12/20 07:36:37;;;;;;;0.70;0.70;;;2.40;99.90;;;;;;5093952;28;20257;-69
2023/12/20 07:39:03;;;;;;;0.70;0.70;;;2.40;99.90;;;;;;5112454;28;20196;-69
2023/12/20 07:41:29;;;;;;;0.60;0.60;;;2.50;99.90;;;;;;5112314;28;20256;-69
2023/12/20 07:43:55;;;;;;;0.60;0.60;;;2.50;99.90;;;;;;5102188;28;20208;-70
2023/12/20 07:46:24;;;;;;;0.60;0.60;;;2.50;99.90;;;;;;5091737;28;20243;-69
2023/12/20 07:48:50;;;;;;;0.70;0.70;;;2.50;99.90;;;;;;5091952;28;20282;-69
2023/12/20 07:51:16;;;;;;;0.80;0.80;;;2.50;99.90;;;;;;5100792;28;20718;-70
2023/12/20 07:53:41;;;;;;;0.70;0.70;;;2.50;99.90;;;;;;5112179;28;20211;-70
2023/12/20 07:56:20;;;;;;;1.17;1.08;;;2.40;99.90;;;;;;5112107;28;20304;-70
2023/12/20 07:58:46;;;;;;;1.58;1.25;;;2.40;99.90;;;;;;5112486;28;20941;-72
2023/12/20 08:01:12;;;;;;;1.00;1.00;;;2.50;99.90;;;;;;5111946;28;20278;-72
2023/12/20 08:03:38;;;;;;;0.80;0.80;;;2.50;99.90;;;;;;5093132;28;20613;-72
2023/12/20 08:06:04;;;;;;;1.10;1.10;;;2.50;99.90;;;;;;5093324;28;20199;-71
2023/12/20 08:08:30;;;;;;;1.23;1.13;;;2.60;99.90;;;;;;5093099;28;20549;-71
2023/12/20 08:10:59;;;;;;;0.70;0.70;;;2.60;99.90;;;;;;5111704;28;20213;-72
2023/12/20 08:13:25;;;;;;;0.82;0.82;;;2.60;99.90;;;;;;5093143;28;20195;-72
2023/12/20 08:15:52;;;;;;;0.63;0.63;;;2.60;99.90;;;;;;5111795;28;20195;-72
2023/12/20 08:18:17;;;;;;;0.70;0.70;;;2.60;99.90;;;;;;5111696;28;20197;-72
2023/12/20 08:20:43;;;;;;;0.82;0.82;;;2.60;99.90;;;;;;5111640;28;20294;-72
2023/12/20 08:23:09;;;;;;;0.80;0.80;;;2.60;99.90;;;;;;5111549;28;20210;-72
2023/12/20 08:25:34;;;;;;;0.70;0.70;;;2.50;99.90;;;;;;5111601;28;20238;-71
2023/12/20 08:28:02;;;;;;;0.60;0.60;;;2.60;99.90;;;;;;5111340;28;20211;-72
2023/12/20 08:30:27;;;;;;;0.70;0.70;;;2.60;99.90;;;;;;5111548;28;20191;-72
2023/12/20 08:32:53;;;;;;;0.70;0.70;;;2.60;99.90;;;;;;5091913;28;20604;-72
2023/12/20 08:35:19;;;;;;;0.65;0.65;;;2.60;99.90;;;;;;5111388;28;20600;-72
2023/12/20 08:37:45;;;;;;;0.70;0.70;;;2.60;99.90;;;;;;5111556;28;20256;-72
2023/12/20 08:40:11;;;;;;;0.70;0.70;;;2.70;99.90;;;;;;5100512;28;20200;-72
2023/12/20 08:42:36;;;;;;;0.70;0.70;;;2.70;99.90;;;;;;5090639;28;20192;-72
2023/12/20 08:45:04;;;;;;;0.50;0.50;;;2.70;99.90;;;;;;5090834;28;20199;-71
2023/12/20 08:47:30;;;;;;;0.70;0.70;;;2.80;99.90;;;;;;5081122;28;20207;-72
2023/12/20 08:49:56;;;;;;;1.17;0.98;;;2.80;99.90;;;;;;5111317;28;20662;-72
2023/12/20 08:52:26;;;;;;;0.77;0.77;;;2.80;99.90;;;;;;5110816;28;20670;-72
2023/12/20 08:54:53;;;;;;;0.60;0.60;;;2.80;99.90;;;;;;5110992;28;20236;-73
2023/12/20 08:57:23;;;;;;;0.70;0.70;;;2.90;99.90;;;;;;5110404;28;20717;-73
2023/12/20 08:59:49;;;;;;;0.70;0.70;;;2.90;99.90;;;;;;5110766;28;20337;-72
2023/12/20 09:02:16;;;;;;;0.70;0.70;;;2.90;99.90;;;;;;5110828;28;20191;-72
2023/12/20 09:04:42;;;;;;;0.60;0.60;;;2.90;99.90;;;;;;5110675;28;20198;-72
2023/12/20 09:07:20;;;;;;;0.60;0.60;;;2.90;99.90;;;;;;5111083;28;20215;-73
2023/12/20 09:09:46;;;;;;;0.70;0.70;;;2.90;99.90;;;;;;5110543;28;20679;-72
2023/12/20 09:12:11;;;;;;;0.60;0.60;;;3.00;99.90;;;;;;5110421;28;20255;-73
2023/12/20 09:14:37;;;;;;;0.60;0.60;;;3.00;99.90;;;;;;5091853;28;20209;-72
2023/12/20 09:17:03;;;;;;;0.80;0.80;;;3.00;99.90;;;;;;5110704;28;20238;-72
2023/12/20 09:19:29;;;;;;;0.70;0.70;;;3.10;99.90;;;;;;5091839;28;20226;-72
2023/12/20 09:21:55;;;;;;;0.70;0.70;;;3.10;99.90;;;;;;5110378;28;20196;-72
2023/12/20 09:24:20;;;;;;;0.60;0.60;;;3.20;99.90;;;;;;5110436;28;20198;-71
2023/12/20 09:26:46;;;;;;;0.70;0.70;;;3.20;99.90;;;;;;5110618;28;20195;-72
2023/12/20 09:29:15;;;;;;;0.63;0.63;;;3.20;99.90;;;;;;5110379;28;20192;-73
2023/12/20 09:31:41;;;;;;;0.73;0.73;;;3.20;99.90;;;;;;5091860;28;20282;-73
2023/12/20 09:34:07;;;;;;;0.70;0.70;;;3.30;99.90;;;;;;5110340;28;20249;-72
2023/12/20 09:36:35;;;;;;;0.60;0.60;;;3.30;99.90;;;;;;5098415;28;20675;-73
2023/12/20 09:39:01;;;;;;;0.65;0.65;;;3.20;99.90;;;;;;5089723;28;20188;-72
2023/12/20 09:41:31;;;;;;;0.60;0.60;;;3.30;99.90;;;;;;5071186;28;20206;-73
2023/12/20 09:44:02;;;;;;;0.70;0.70;;;3.30;99.90;;;;;;5100131;28;20571;-73
2023/12/20 09:46:32;;;;;;;0.70;0.70;;;3.30;99.90;;;;;;5109992;28;20195;-72
2023/12/20 09:49:00;;;;;;;0.77;0.77;;;3.30;99.90;;;;;;5110093;28;20214;-72
2023/12/20 09:51:28;;;;;;;0.60;0.60;;;3.30;99.90;;;;;;5109865;28;20192;-73
2023/12/20 09:53:56;;;;;;;0.60;0.60;;;3.30;99.90;;;;;;5109923;28;20643;-72
2023/12/20 09:56:24;;;;;;;0.60;0.60;;;3.40;99.90;;;;;;5109103;28;20313;-72
2023/12/20 09:58:50;;;;;;;0.70;0.70;;;3.40;99.90;;;;;;5110011;28;20848;-73
2023/12/20 10:01:16;;;;;;;0.70;0.70;;;3.40;99.90;;;;;;5109737;28;20270;-75
2023/12/20 10:03:42;;;;;;;0.50;0.50;;;3.30;99.90;;;;;;5108823;28;20214;-74
2023/12/20 10:06:09;;;;;;;0.80;0.80;;;3.40;99.90;;;;;;5125084;27;20207;-73
2023/12/20 10:08:35;;;;;;;0.70;0.70;;;3.30;99.90;;;;;;5109245;28;20199;-73
2023/12/20 10:11:02;;;;;;;0.70;0.70;;;3.30;99.90;;;;;;5109466;28;20234;-72
2023/12/20 10:13:28;;;;;;;0.80;0.80;;;3.30;99.90;;;;;;5109409;28;20191;-72
2023/12/20 10:15:55;;;;;;;0.70;0.70;;;3.30;99.90;;;;;;5109361;28;20768;-73
2023/12/20 10:18:21;;;;;;;0.80;0.80;;;3.30;99.90;;;;;;5109313;28;20203;-73
2023/12/20 10:20:47;;;;;;;0.60;0.60;;;3.40;99.90;;;;;;5109905;28;20206;-72
2023/12/20 10:23:15;;;;;;;0.70;0.70;;;3.40;99.90;;;;;;5109389;28;20248;-72
2023/12/20 10:25:41;;;;;;;0.63;0.63;;;3.40;99.90;;;;;;5109232;28;20191;-73
2023/12/20 10:28:22;;;;;;;0.70;0.70;;;3.40;99.90;;;;;;5109356;28;20209;-69
2023/12/20 10:30:48;;;;;;;0.80;0.80;;;3.40;99.90;;;;;;5109209;28;20183;-70
2023/12/20 10:33:22;;;;;;;0.60;0.60;;;3.40;99.90;;;;;;5093831;28;20273;-71
2023/12/20 10:35:48;;;;;;;0.70;0.70;;;3.40;99.90;;;;;;5088747;28;20588;-69
2023/12/20 10:38:14;;;;;;;0.70;0.70;;;3.40;99.90;;;;;;5070826;28;20208;-70
2023/12/20 10:40:40;;;;;;;0.70;0.70;;;3.40;99.90;;;;;;5103140;28;20276;-69
2023/12/20 10:43:08;;;;;;;0.80;0.80;;;3.40;99.90;;;;;;5109036;28;20199;-70
2023/12/20 10:45:34;;;;;;;0.70;0.70;;;3.50;99.90;;;;;;5108847;28;20203;-69
2023/12/20 10:48:01;;;;;;;0.60;0.60;;;3.50;99.90;;;;;;5090824;28;20218;-69
2023/12/20 10:50:28;;;;;;;0.68;0.68;;;3.50;99.90;;;;;;5109055;28;20183;-70
2023/12/20 10:52:55;;;;;;;0.60;0.60;;;3.50;99.90;;;;;;5108694;28;20183;-69
2023/12/20 10:55:25;;;;;;;0.77;0.77;;;3.50;99.90;;;;;;5125803;27;20244;-70
2023/12/20 10:57:52;;;;;;;0.52;0.52;;;3.50;99.90;;;;;;5128992;27;20584;-69
2023/12/20 11:00:19;;;;;;;0.57;0.57;;;3.50;99.90;;;;;;5095051;28;20248;-69
2023/12/20 11:02:45;;;;;;;0.70;0.70;;;3.50;99.90;;;;;;5094597;28;20581;-69
2023/12/20 11:05:10;;;;;;;0.70;0.70;;;3.60;99.90;;;;;;5113108;28;20198;-68
2023/12/20 11:07:42;;;;;;;0.70;0.70;;;3.70;99.90;;;;;;5112637;28;20199;-70
2023/12/20 11:10:25;;;;;;;0.70;0.70;;;3.70;99.90;;;;;;5094374;28;20276;-70
2023/12/20 11:13:14;;;;;;;0.60;0.60;;;3.70;99.90;;;;;;5112950;28;20192;-70
2023/12/20 11:15:40;;;;;;;0.50;0.50;;;3.70;99.90;;;;;;5128586;27;21399;-69
2023/12/20 11:18:06;;;;;;;0.50;0.50;;;3.70;99.90;;;;;;5112708;28;20207;-70
2023/12/20 11:20:40;;;;;;;0.60;0.60;;;3.70;99.90;;;;;;5094234;28;20248;-69
2023/12/20 11:23:09;;;;;;;0.52;0.52;;;3.70;99.90;;;;;;5112601;28;20211;-69
2023/12/20 11:25:55;;;;;;;1.08;0.98;;;3.60;99.90;;;;;;5112528;28;20644;-70
2023/12/20 11:28:24;;;;;;;0.65;0.65;;;3.60;99.90;;;;;;5112152;28;20741;-69
2023/12/20 11:31:02;;;;;;;0.60;0.60;;;3.50;99.90;;;;;;5094060;28;20196;-70
2023/12/20 11:33:37;;;;;;;0.60;0.60;;;3.50;99.90;;;;;;5093818;28;20645;-70
2023/12/20 11:36:12;;;;;;;0.75;0.75;;;3.50;99.90;;;;;;5112442;28;20214;-69
2023/12/20 11:38:38;;;;;;;0.60;0.60;;;3.50;99.90;;;;;;5112488;28;20686;-68
2023/12/20 11:41:06;;;;;;;0.50;0.50;;;3.60;99.90;;;;;;5112306;28;20198;-69
2023/12/20 11:43:34;;;;;;;0.47;0.47;;;3.60;99.90;;;;;;5112088;28;20655;-68
2023/12/20 11:46:05;;;;;;;0.60;0.60;;;3.60;99.90;;;;;;5112141;28;20204;-68
2023/12/20 11:48:31;;;;;;;0.70;0.70;;;3.70;99.90;;;;;;5111797;28;20698;-68
2023/12/20 11:50:57;;;;;;;0.60;0.60;;;3.70;99.90;;;;;;5093872;28;20195;-67
2023/12/20 11:53:23;;;;;;;0.70;0.70;;;3.70;99.90;;;;;;5112120;28;20253;-67
2023/12/20 11:55:49;;;;;;;0.70;0.70;;;3.60;99.90;;;;;;5112131;28;20223;-67
2023/12/20 11:58:16;;;;;;;0.50;0.50;;;3.60;99.90;;;;;;5112570;28;20256;-67
2023/12/20 12:00:43;;;;;;;0.70;0.70;;;3.60;99.90;;;;;;5111775;28;20215;-67
2023/12/20 12:03:09;;;;;;;0.70;0.70;;;3.50;99.90;;;;;;5111928;28;20612;-67
2023/12/20 12:05:35;;;;;;;0.60;0.60;;;3.50;99.90;;;;;;5111692;28;20584;-67
2023/12/20 12:08:02;;;;;;;0.70;0.70;;;3.50;99.90;;;;;;5111614;28;20219;-68
2023/12/20 12:10:28;;;;;;;0.60;0.60;;;3.50;99.90;;;;;;5111569;28;20706;-69
2023/12/20 12:12:54;;;;;;;0.65;0.65;;;3.40;99.90;;;;;;5111635;28;20671;-66
2023/12/20 12:15:21;;;;;;;0.60;0.60;;;3.40;99.90;;;;;;5112035;28;20299;-66
2023/12/20 12:17:57;;;;;;;0.63;0.63;;;3.40;99.90;;;;;;5093233;28;20213;-69
2023/12/20 12:20:24;;;;;;;1.88;1.05;;;3.30;99.90;;;;;;5111322;28;20662;-67
2023/12/20 12:23:06;;;;;;;0.50;0.50;;;3.20;99.90;;;;;;5093135;28;20673;-67
2023/12/20 12:25:35;;;;;;;0.70;0.70;;;3.20;99.90;;;;;;5111039;28;20207;-69
2023/12/20 12:28:01;;;;;;;0.60;0.60;;;3.20;99.90;;;;;;5093106;28;20215;-72
2023/12/20 12:30:27;;;;;;;0.68;0.68;;;3.20;99.90;;;;;;5111506;28;20205;-72
2023/12/20 12:32:53;;;;;;;0.63;0.63;;;3.10;99.90;;;;;;5111128;28;20203;-71
2023/12/20 12:35:20;;;;;;;0.60;0.60;;;3.20;99.90;;;;;;5111166;28;20315;-72
2023/12/20 12:37:46;;;;;;;0.88;0.88;;;3.20;99.90;;;;;;5111358;28;20188;-73
2023/12/20 12:40:13;;;;;;;1.58;1.45;;;3.20;99.90;;;;;;5111582;28;20192;-72
2023/12/20 12:42:40;;;;;;;1.13;1.02;;;3.20;99.90;;;;;;5111067;28;20243;-71
2023/12/20 12:45:07;;;;;;;0.63;0.63;;;3.20;99.90;;;;;;5098646;28;20196;-72
2023/12/20 12:47:33;;;;;;;0.70;0.70;;;3.20;99.90;;;;;;5090877;28;20204;-72
2023/12/20 12:49:59;;;;;;;0.60;0.60;;;3.10;99.90;;;;;;5091049;28;20667;-72
2023/12/20 12:52:26;;;;;;;0.60;0.60;;;3.10;99.90;;;;;;5090689;28;20241;-73